createdAt,value
2023-03-11T00:01:20.592Z,99670.69
2023-03-11T00:03:47.080Z,99644.97
2023-03-11T00:06:13.762Z,99630.03
2023-03-11T00:08:41.202Z,99691.31
2023-03-11T00:11:07.885Z,99674.75
2023-03-11T00:13:36.867Z,99704.53
2023-03-11T00:16:03.723Z,99680.97
2023-03-11T00:18:31.583Z,99676.81
2023-03-11T00:20:59.692Z,99711.44
2023-03-11T00:23:26.869Z,99734.41
2023-03-11T00:25:54.269Z,99742.03
2023-03-11T00:28:25.186Z,99723.69
2023-03-11T00:30:51.861Z,99747.09
2023-03-11T00:33:18.805Z,99762.06
2023-03-11T00:35:45.386Z,99754.66
2023-03-11T00:38:16.607Z,99747.97
2023-03-11T00:40:44.667Z,99758.13
2023-03-11T00:43:11.596Z,99723.44
2023-03-11T00:45:38.449Z,99757.94
2023-03-11T00:48:05.740Z,99743.03
2023-03-11T00:50:34.727Z,99757.81
2023-03-11T00:53:01.497Z,99761.44
2023-03-11T00:55:31.271Z,99756.78
2023-03-11T00:58:00.214Z,99788.81
2023-03-11T01:00:28.239Z,99778.91
2023-03-11T01:02:55.424Z,99770.28
2023-03-11T01:05:24.406Z,99790.16
2023-03-11T01:07:50.938Z,99774.81
2023-03-11T01:10:17.607Z,99801.81
2023-03-11T01:12:44.341Z,99739.88
2023-03-11T01:15:19.084Z,99810.88
2023-03-11T01:17:45.969Z,99807.28
2023-03-11T01:20:13.071Z,99810.53
2023-03-11T01:22:39.589Z,99797.44
2023-03-11T01:25:06.447Z,99820.81
2023-03-11T01:27:32.926Z,99819.69
2023-03-11T01:29:59.660Z,99830.28
2023-03-11T01:32:26.198Z,99824.19
2023-03-11T01:34:52.720Z,99824.78
2023-03-11T01:37:20.185Z,99813.78
2023-03-11T01:39:47.019Z,99788.59
2023-03-11T01:42:13.751Z,99796.88
2023-03-11T01:44:40.401Z,99830.41
2023-03-11T01:47:09.916Z,99829.75
2023-03-11T01:49:41.860Z,99819.91
2023-03-11T01:52:09.120Z,99828.88
2023-03-11T01:54:38.457Z,99811.75
2023-03-11T01:57:12.695Z,99807.53
2023-03-11T01:59:42.229Z,99834.53
2023-03-11T02:02:17.717Z,99835.19
2023-03-11T02:04:45.063Z,99827.00
2023-03-11T02:07:12.280Z,99810.16
2023-03-11T02:09:38.950Z,99833.28
2023-03-11T02:12:06.757Z,99791.56
2023-03-11T02:14:34.533Z,99784.03
2023-03-11T02:17:01.483Z,99840.88
2023-03-11T02:19:37.801Z,99794.53
2023-03-11T02:22:04.632Z,99812.53
2023-03-11T02:24:39.345Z,99842.19
2023-03-11T02:27:09.797Z,99815.72
2023-03-11T02:29:36.724Z,99839.53
2023-03-11T02:32:06.545Z,99840.88
2023-03-11T02:34:35.400Z,99803.25
2023-03-11T02:37:05.339Z,99843.75
2023-03-11T02:39:37.320Z,99846.84
2023-03-11T02:42:07.679Z,99852.69
2023-03-11T02:44:34.547Z,99816.38
2023-03-11T02:47:01.269Z,99858.13
2023-03-11T02:49:27.977Z,99850.72
2023-03-11T02:51:54.506Z,99872.50
2023-03-11T02:54:21.073Z,99833.88
2023-03-11T02:56:47.966Z,99834.13
2023-03-11T02:59:14.448Z,99861.72
2023-03-11T03:01:40.984Z,99871.03
2023-03-11T03:04:07.680Z,99857.09
2023-03-11T03:06:34.358Z,99887.13
2023-03-11T03:09:00.883Z,99873.44
2023-03-11T03:11:27.454Z,99861.31
2023-03-11T03:13:53.959Z,99892.00
2023-03-11T03:16:20.497Z,99898.22
2023-03-11T03:18:47.271Z,99828.66
2023-03-11T03:21:13.831Z,99904.97
2023-03-11T03:23:40.353Z,99883.16
2023-03-11T03:26:07.079Z,99915.00
2023-03-11T03:28:33.558Z,99918.38
2023-03-11T03:31:05.131Z,99915.28
2023-03-11T03:33:32.365Z,99919.22
2023-03-11T03:35:59.405Z,99901.38
2023-03-11T03:38:25.973Z,99896.47
2023-03-11T03:40:52.735Z,99873.47
2023-03-11T03:43:19.202Z,99879.00
2023-03-11T03:45:45.786Z,99927.06
2023-03-11T03:48:12.423Z,99928.84
2023-03-11T03:50:40.070Z,99903.41
2023-03-11T03:53:06.619Z,99922.97
2023-03-11T03:55:33.124Z,99920.91
2023-03-11T03:57:59.629Z,99902.00
2023-03-11T04:00:26.173Z,99915.22
2023-03-11T04:02:52.656Z,99939.09
2023-03-11T04:05:19.165Z,99922.41
2023-03-11T04:07:45.709Z,99894.09
2023-03-11T04:10:14.143Z,99922.00
2023-03-11T04:12:40.680Z,99942.09
2023-03-11T04:15:07.785Z,99955.53
2023-03-11T04:17:34.307Z,99961.47
2023-03-11T04:20:00.814Z,99951.06
2023-03-11T04:22:27.462Z,99951.03
2023-03-11T04:24:53.975Z,99939.81
2023-03-11T04:27:20.506Z,99952.09
2023-03-11T04:29:47.083Z,99954.94
2023-03-11T04:32:13.726Z,99960.63
2023-03-11T04:34:40.755Z,99950.41
2023-03-11T04:37:07.674Z,99927.91
2023-03-11T04:39:34.263Z,99941.03
2023-03-11T04:42:03.536Z,99954.88
2023-03-11T04:44:30.533Z,99962.69
2023-03-11T04:46:57.051Z,99988.31
2023-03-11T04:49:23.586Z,99950.81
2023-03-11T04:51:50.147Z,99984.69
2023-03-11T04:54:16.678Z,100003.44
2023-03-11T04:56:43.216Z,100010.00
2023-03-11T04:59:09.736Z,99987.44
2023-03-11T05:01:36.217Z,99888.75
2023-03-11T05:04:03.071Z,100016.06
2023-03-11T05:06:29.710Z,99974.66
2023-03-11T05:08:56.712Z,99971.47
2023-03-11T05:11:23.218Z,99999.97
2023-03-11T05:13:49.723Z,99984.00
2023-03-11T05:16:16.373Z,100023.16
2023-03-11T05:18:42.945Z,100001.28
2023-03-11T05:21:09.517Z,100027.16
2023-03-11T05:23:36.394Z,99999.06
2023-03-11T05:26:03.160Z,99999.97
2023-03-11T05:28:29.687Z,100001.88
2023-03-11T05:30:56.259Z,100012.44
2023-03-11T05:33:23.038Z,100041.03
2023-03-11T05:35:51.915Z,99991.16
2023-03-11T05:38:18.514Z,100030.53
2023-03-11T05:40:45.622Z,100023.78
2023-03-11T05:43:12.225Z,100058.28
2023-03-11T05:45:38.696Z,100014.28
2023-03-11T05:48:05.446Z,100056.44
2023-03-11T05:50:31.999Z,100034.28
2023-03-11T05:52:58.492Z,100061.75
2023-03-11T05:55:25.122Z,100038.81
2023-03-11T05:57:52.343Z,100030.81
2023-03-11T06:00:20.510Z,100062.03
2023-03-11T06:02:47.126Z,100040.88
2023-03-11T06:05:14.189Z,100049.09
2023-03-11T06:07:40.850Z,100039.16
2023-03-11T06:10:07.967Z,100066.47
2023-03-11T06:12:35.279Z,100077.31
2023-03-11T06:15:01.958Z,100056.22
2023-03-11T06:17:30.397Z,100056.38
2023-03-11T06:19:57.168Z,100059.72
2023-03-11T06:22:24.043Z,100050.41
2023-03-11T06:24:50.677Z,100073.31
2023-03-11T06:27:17.403Z,100039.91
2023-03-11T06:29:43.972Z,100073.88
2023-03-11T06:32:10.797Z,100091.69
2023-03-11T06:34:37.654Z,100090.16
2023-03-11T06:37:04.413Z,100081.22
2023-03-11T06:39:31.080Z,100060.03
2023-03-11T06:41:57.641Z,100079.22
2023-03-11T06:44:24.228Z,100074.22
2023-03-11T06:46:50.767Z,100105.97
2023-03-11T06:49:17.343Z,100105.25
2023-03-11T06:51:43.886Z,100112.78
2023-03-11T06:54:10.448Z,100094.69
2023-03-11T06:56:36.986Z,100094.00
2023-03-11T06:59:03.585Z,100118.00
2023-03-11T07:01:30.220Z,100102.97
2023-03-11T07:03:59.684Z,100120.06
2023-03-11T07:06:27.720Z,100145.44
2023-03-11T07:08:54.908Z,100151.84
2023-03-11T07:11:25.905Z,100125.75
2023-03-11T07:13:53.843Z,100158.81
2023-03-11T07:16:23.192Z,100167.03
2023-03-11T07:18:51.198Z,100167.59
2023-03-11T07:21:20.414Z,100156.72
2023-03-11T07:23:49.186Z,100167.41
2023-03-11T07:26:16.589Z,100171.31
2023-03-11T07:28:44.462Z,100184.13
2023-03-11T07:31:13.332Z,100196.50
2023-03-11T07:33:40.164Z,100198.03
2023-03-11T07:36:11.872Z,100191.66
2023-03-11T07:38:38.921Z,100205.50
2023-03-11T07:41:05.523Z,100208.22
2023-03-11T07:43:32.714Z,100193.56
2023-03-11T07:46:03.204Z,100232.09
2023-03-11T07:48:29.788Z,100154.91
2023-03-11T07:51:07.947Z,100195.28
2023-03-11T07:53:34.734Z,100222.47
2023-03-11T07:56:04.349Z,100226.75
2023-03-11T07:58:30.865Z,100232.72
2023-03-11T08:01:04.268Z,100234.81
2023-03-11T08:03:30.926Z,100242.41
2023-03-11T08:05:57.682Z,100233.75
2023-03-11T08:08:24.374Z,100217.63
2023-03-11T08:10:50.975Z,100246.13
2023-03-11T08:13:17.525Z,100232.28
2023-03-11T08:15:44.080Z,100249.75
2023-03-11T08:18:11.127Z,100212.91
2023-03-11T08:20:38.467Z,100231.00
2023-03-11T08:23:05.492Z,100246.88
2023-03-11T08:25:32.003Z,100237.66
2023-03-11T08:27:58.768Z,100259.00
2023-03-11T08:30:25.340Z,100216.69
2023-03-11T08:32:51.948Z,100269.00
2023-03-11T08:35:18.560Z,100274.41
2023-03-11T08:37:45.311Z,100268.50
2023-03-11T08:40:12.473Z,100255.78
2023-03-11T08:42:39.000Z,100279.34
2023-03-11T08:45:06.214Z,100276.59
2023-03-11T08:47:37.263Z,100260.34
2023-03-11T08:50:06.630Z,100271.34
2023-03-11T08:52:33.180Z,100269.75
2023-03-11T08:54:59.660Z,100245.81
2023-03-11T08:57:26.202Z,100251.78
2023-03-11T08:59:52.976Z,100180.84
2023-03-11T09:02:19.528Z,100261.09
2023-03-11T09:04:46.367Z,100252.28
2023-03-11T09:07:13.077Z,100274.41
2023-03-11T09:09:39.777Z,100250.66
2023-03-11T09:12:07.844Z,100272.03
2023-03-11T09:14:35.452Z,100251.69
2023-03-11T09:17:02.000Z,100250.16
2023-03-11T09:19:28.872Z,100271.63
2023-03-11T09:21:55.430Z,100278.38
2023-03-11T09:24:21.979Z,100262.78
2023-03-11T09:26:48.491Z,100255.69
2023-03-11T09:29:15.075Z,100269.41
2023-03-11T09:31:42.107Z,100269.59
2023-03-11T09:34:08.928Z,100262.25
2023-03-11T09:36:35.745Z,100272.59
2023-03-11T09:39:02.356Z,100278.16
2023-03-11T09:41:57.016Z,100281.97
2023-03-11T09:44:23.847Z,100270.34
2023-03-11T09:47:08.583Z,100284.53
2023-03-11T09:50:15.156Z,100279.22
2023-03-11T09:52:50.870Z,100286.06
2023-03-11T09:55:35.655Z,100258.94
2023-03-11T09:58:08.287Z,100276.75
2023-03-11T10:00:35.876Z,100290.88
2023-03-11T10:03:03.194Z,100235.44
2023-03-11T10:05:30.365Z,100273.03
2023-03-11T10:08:24.058Z,100267.31
2023-03-11T10:11:00.410Z,100277.16
2023-03-11T10:13:34.035Z,100274.75
2023-03-11T10:16:19.900Z,100264.38
2023-03-11T10:18:54.296Z,100266.00
2023-03-11T10:21:35.434Z,100244.75
2023-03-11T10:24:11.270Z,100262.41
2023-03-11T10:26:46.079Z,100263.97
2023-03-11T10:29:27.129Z,100251.47
2023-03-11T10:31:59.671Z,100275.38
2023-03-11T10:34:28.132Z,100264.13
2023-03-11T10:37:08.781Z,100277.06
2023-03-11T10:39:35.324Z,100266.50
2023-03-11T10:42:09.901Z,100258.94
2023-03-11T10:44:39.166Z,100264.13
2023-03-11T10:47:10.117Z,100264.50
2023-03-11T10:49:36.561Z,100259.84
2023-03-11T10:52:04.090Z,100255.91
2023-03-11T10:54:33.984Z,100278.78
2023-03-11T10:57:06.306Z,100291.34
2023-03-11T10:59:38.961Z,100280.41
2023-03-11T11:02:22.965Z,100287.47
2023-03-11T11:05:03.302Z,100256.06
2023-03-11T11:07:36.822Z,100295.94
2023-03-11T11:10:24.712Z,100297.66
2023-03-11T11:13:10.012Z,100295.06
2023-03-11T11:16:04.328Z,100256.63
2023-03-11T11:18:37.335Z,100305.84
2023-03-11T11:21:15.526Z,100307.28
2023-03-11T11:23:59.047Z,100297.69
2023-03-11T11:26:26.651Z,100308.00
2023-03-11T11:29:12.268Z,100287.06
2023-03-11T11:31:40.534Z,100306.28
2023-03-11T11:34:30.339Z,100290.47
2023-03-11T11:36:58.901Z,100266.94
2023-03-11T11:39:28.427Z,100213.75
2023-03-11T11:41:56.007Z,100285.50
2023-03-11T11:44:29.713Z,100258.28
2023-03-11T11:46:59.749Z,100244.16
2023-03-11T11:49:36.973Z,100263.81
2023-03-11T11:52:16.456Z,100266.91
2023-03-11T11:54:51.143Z,100274.06
2023-03-11T11:57:20.888Z,100266.41
2023-03-11T11:59:48.016Z,100274.97
2023-03-11T12:02:33.425Z,100279.28
2023-03-11T12:05:22.490Z,100285.53
2023-03-11T12:08:00.120Z,100271.31
2023-03-11T12:10:34.780Z,100242.00
2023-03-11T12:13:07.712Z,100262.66
2023-03-11T12:15:41.347Z,100272.25
2023-03-11T12:18:16.470Z,100251.25
2023-03-11T12:20:47.024Z,100231.59
2023-03-11T12:23:36.265Z,100239.25
2023-03-11T12:26:15.046Z,100260.06
2023-03-11T12:29:19.847Z,100245.31
2023-03-11T12:31:46.980Z,100249.16
2023-03-11T12:34:15.119Z,100248.66
2023-03-11T12:36:44.056Z,100271.84
2023-03-11T12:39:33.636Z,100289.34
2023-03-11T12:42:18.543Z,100286.69
2023-03-11T12:44:46.442Z,100291.97
2023-03-11T12:47:12.894Z,100297.97
2023-03-11T12:49:41.793Z,100301.97
2023-03-11T12:52:11.557Z,100302.56
2023-03-11T12:54:40.522Z,100301.44
2023-03-11T12:57:16.164Z,100309.63
2023-03-11T13:00:09.685Z,100316.94
2023-03-11T13:03:13.908Z,100317.34
2023-03-11T13:06:05.242Z,100332.44
2023-03-11T13:08:48.654Z,100324.91
2023-03-11T13:11:36.356Z,100325.97
2023-03-11T13:14:16.184Z,100327.78
2023-03-11T13:16:44.056Z,100321.66
2023-03-11T13:19:26.346Z,100331.28
2023-03-11T13:21:54.189Z,100312.41
2023-03-11T13:24:26.097Z,100337.94
2023-03-11T13:26:58.819Z,100339.41
2023-03-11T13:29:52.249Z,100332.50
2023-03-11T13:32:29.285Z,100326.59
2023-03-11T13:34:55.831Z,100324.50
2023-03-11T13:37:44.398Z,100330.72
2023-03-11T13:40:29.237Z,100329.75
2023-03-11T13:42:58.420Z,100319.22
2023-03-11T13:45:29.442Z,100329.94
2023-03-11T13:48:03.719Z,100316.50
2023-03-11T13:50:35.224Z,100319.00
2023-03-11T13:53:03.966Z,100291.72
2023-03-11T13:55:35.086Z,100302.53
2023-03-11T13:58:01.930Z,100322.03
2023-03-11T14:00:30.512Z,100297.25
2023-03-11T14:02:58.253Z,100332.84
2023-03-11T14:05:31.840Z,100333.66
2023-03-11T14:08:17.223Z,100346.13
2023-03-11T14:11:01.178Z,100334.22
2023-03-11T14:13:38.584Z,100340.28
2023-03-11T14:16:21.198Z,100320.72
2023-03-11T14:18:55.614Z,100336.53
2023-03-11T14:21:22.832Z,100308.50
2023-03-11T14:23:51.324Z,100287.34
2023-03-11T14:26:20.906Z,100331.09
2023-03-11T14:28:55.776Z,100328.22
2023-03-11T14:31:34.813Z,100315.56
2023-03-11T14:34:25.438Z,100297.63
2023-03-11T14:36:57.344Z,100336.91
2023-03-11T14:39:31.775Z,100329.09
2023-03-11T14:42:06.776Z,100297.03
2023-03-11T14:44:36.452Z,100310.94
2023-03-11T14:47:44.481Z,100327.53
2023-03-11T14:50:16.613Z,100315.16
2023-03-11T14:52:47.186Z,100340.88
2023-03-11T14:55:16.225Z,100161.28
2023-03-11T14:57:46.505Z,100300.91
2023-03-11T15:00:20.602Z,100312.63
2023-03-11T15:03:01.615Z,100352.69
2023-03-11T15:05:35.338Z,100322.81
2023-03-11T15:08:03.234Z,100326.38
2023-03-11T15:10:29.732Z,100342.47
2023-03-11T15:13:13.922Z,100352.78
2023-03-11T15:15:40.906Z,100355.06
2023-03-11T15:18:24.957Z,100348.59
2023-03-11T15:21:12.582Z,100314.03
2023-03-11T15:23:39.799Z,100347.81
2023-03-11T15:26:07.004Z,100355.03
2023-03-11T15:28:34.754Z,100328.28
2023-03-11T15:31:19.792Z,100361.50
2023-03-11T15:33:46.890Z,100348.97
2023-03-11T15:36:34.667Z,100351.53
2023-03-11T15:39:17.609Z,100367.25
2023-03-11T15:41:46.714Z,100361.13
2023-03-11T15:44:35.969Z,100347.91
2023-03-11T15:47:04.101Z,100365.50
2023-03-11T15:49:30.742Z,100360.03
2023-03-11T15:52:01.098Z,100367.44
2023-03-11T15:54:28.542Z,100354.38
2023-03-11T15:56:56.456Z,100345.88
2023-03-11T15:59:23.296Z,100351.53
2023-03-11T16:01:50.354Z,100363.50
2023-03-11T16:04:19.097Z,100349.28
2023-03-11T16:06:49.599Z,100375.06
2023-03-11T16:09:20.845Z,100371.59
2023-03-11T16:11:47.520Z,100365.28
2023-03-11T16:14:20.016Z,100378.25
2023-03-11T16:16:47.020Z,100364.38
2023-03-11T16:19:13.723Z,100373.66
2023-03-11T16:21:44.211Z,100383.84
2023-03-11T16:24:18.945Z,100354.44
2023-03-11T16:26:45.480Z,100378.56
2023-03-11T16:29:18.938Z,100352.09
2023-03-11T16:31:45.903Z,100357.13
2023-03-11T16:34:12.726Z,100349.31
2023-03-11T16:36:39.259Z,100378.44
2023-03-11T16:39:05.781Z,100322.34
2023-03-11T16:41:43.596Z,100375.78
2023-03-11T16:44:10.690Z,100352.22
2023-03-11T16:46:37.462Z,100381.19
2023-03-11T16:49:05.223Z,100380.50
2023-03-11T16:51:32.170Z,100387.72
2023-03-11T16:53:58.834Z,100387.00
2023-03-11T16:56:25.334Z,100389.41
2023-03-11T16:58:52.280Z,100382.09
2023-03-11T17:01:19.269Z,100386.31
2023-03-11T17:03:48.656Z,100398.44
2023-03-11T17:06:17.131Z,100371.31
2023-03-11T17:08:48.922Z,100383.28
2023-03-11T17:11:28.478Z,100399.16
2023-03-11T17:14:00.592Z,100397.22
2023-03-11T17:16:36.405Z,100400.72
2023-03-11T17:19:03.062Z,100396.25
2023-03-11T17:21:29.612Z,100398.19
2023-03-11T17:23:56.073Z,100397.63
2023-03-11T17:26:22.703Z,100403.97
2023-03-11T17:28:49.207Z,100400.00
2023-03-11T17:31:17.015Z,100413.81
2023-03-11T17:33:44.059Z,100414.34
2023-03-11T17:36:14.274Z,100407.72
2023-03-11T17:38:40.820Z,100422.06
2023-03-11T17:41:12.646Z,100430.91
2023-03-11T17:43:39.760Z,100426.91
2023-03-11T17:46:08.877Z,100426.06
2023-03-11T17:48:35.425Z,100429.44
2023-03-11T17:51:07.621Z,100432.66
2023-03-11T17:53:35.782Z,100431.22
2023-03-11T17:56:03.045Z,100423.84
2023-03-11T17:58:29.635Z,100412.34
2023-03-11T18:00:56.185Z,100421.13
2023-03-11T18:03:22.765Z,100405.50
2023-03-11T18:05:56.929Z,100453.06
2023-03-11T18:08:23.515Z,100444.66
2023-03-11T18:10:51.247Z,100439.69
2023-03-11T18:13:18.279Z,100397.03
2023-03-11T18:15:45.190Z,100431.03
2023-03-11T18:18:12.226Z,100444.97
2023-03-11T18:20:39.530Z,100449.81
2023-03-11T18:23:06.277Z,100435.03
2023-03-11T18:25:32.884Z,100446.78
2023-03-11T18:27:59.398Z,100425.59
2023-03-11T18:30:25.964Z,100420.53
2023-03-11T18:32:52.645Z,100420.16
2023-03-11T18:35:19.810Z,100460.13
2023-03-11T18:37:46.664Z,100461.03
2023-03-11T18:40:13.571Z,100460.06
2023-03-11T18:42:40.196Z,100440.84
2023-03-11T18:45:07.215Z,100454.72
2023-03-11T18:47:35.414Z,100427.06
2023-03-11T18:50:01.986Z,100440.09
2023-03-11T18:52:28.524Z,100454.22
2023-03-11T18:54:54.988Z,100466.56
2023-03-11T18:57:21.664Z,100433.16
2023-03-11T18:59:49.828Z,100461.28
2023-03-11T19:02:16.696Z,100438.81
2023-03-11T19:04:43.704Z,100465.84
2023-03-11T19:07:10.898Z,100465.34
2023-03-11T19:09:37.464Z,100448.22
2023-03-11T19:12:04.076Z,100436.78
2023-03-11T19:14:30.593Z,100470.81
2023-03-11T19:16:57.217Z,100448.56
2023-03-11T19:19:23.753Z,100425.53
2023-03-11T19:21:50.643Z,100460.59
2023-03-11T19:24:17.527Z,100463.94
2023-03-11T19:26:45.961Z,100472.44
2023-03-11T19:29:14.017Z,100468.31
2023-03-11T19:31:40.730Z,100468.72
2023-03-11T19:34:07.290Z,100456.13
2023-03-11T19:36:33.877Z,100475.25
2023-03-11T19:39:00.421Z,100478.75
2023-03-11T19:41:27.077Z,100471.41
2023-03-11T19:43:53.676Z,100472.84
2023-03-11T19:46:22.285Z,100481.31
2023-03-11T19:48:48.937Z,100457.25
2023-03-11T19:51:17.317Z,100482.63
2023-03-11T19:53:44.092Z,100453.69
2023-03-11T19:56:10.793Z,100457.72
2023-03-11T19:58:37.508Z,100484.50
2023-03-11T20:01:04.272Z,100449.91
2023-03-11T20:03:31.284Z,100473.03
2023-03-11T20:06:04.052Z,100489.09
2023-03-11T20:08:30.705Z,100455.19
2023-03-11T20:11:00.726Z,100497.94
2023-03-11T20:13:27.665Z,100488.19
2023-03-11T20:15:54.255Z,100481.69
2023-03-11T20:18:21.024Z,100493.47
2023-03-11T20:20:47.626Z,100494.06
2023-03-11T20:23:14.341Z,100492.19
2023-03-11T20:25:41.493Z,100494.16
2023-03-11T20:28:10.106Z,100501.28
2023-03-11T20:30:37.813Z,100442.75
2023-03-11T20:33:04.713Z,100484.69
2023-03-11T20:35:31.218Z,100486.47
2023-03-11T20:37:58.992Z,100488.56
2023-03-11T20:40:25.529Z,100474.16
2023-03-11T20:42:52.093Z,100486.09
2023-03-11T20:45:22.404Z,100497.47
2023-03-11T20:47:50.260Z,100342.63
2023-03-11T20:50:17.160Z,100459.94
2023-03-11T20:52:44.067Z,100473.22
2023-03-11T20:55:11.166Z,100484.50
2023-03-11T20:57:38.936Z,100489.78
2023-03-11T21:00:11.200Z,100500.41
2023-03-11T21:02:39.176Z,100446.50
2023-03-11T21:05:07.047Z,100495.50
2023-03-11T21:07:33.693Z,100488.72
2023-03-11T21:10:00.286Z,100460.78
2023-03-11T21:12:28.276Z,100501.81
2023-03-11T21:14:56.657Z,100505.75
2023-03-11T21:17:23.318Z,100505.19
2023-03-11T21:19:49.835Z,100461.13
2023-03-11T21:22:16.418Z,100484.03
2023-03-11T21:24:43.029Z,100492.44
2023-03-11T21:27:09.662Z,100484.09
2023-03-11T21:29:37.362Z,100500.97
2023-03-11T21:32:04.626Z,100481.78
2023-03-11T21:34:31.371Z,100482.09
2023-03-11T21:36:57.953Z,100493.38
2023-03-11T21:39:24.795Z,100478.47
2023-03-11T21:41:53.220Z,100488.03
2023-03-11T21:44:19.897Z,100486.19
2023-03-11T21:46:46.633Z,100487.28
2023-03-11T21:49:13.219Z,100504.59
2023-03-11T21:51:39.712Z,100479.53
2023-03-11T21:54:06.415Z,100480.78
2023-03-11T21:56:33.026Z,100468.72
2023-03-11T21:58:59.956Z,100499.03
2023-03-11T22:01:26.669Z,100484.94
2023-03-11T22:03:53.632Z,100490.34
2023-03-11T22:06:20.628Z,100482.19
2023-03-11T22:08:47.181Z,100455.84
2023-03-11T22:11:17.749Z,100477.44
2023-03-11T22:13:50.873Z,100502.97
2023-03-11T22:16:18.997Z,100507.56
2023-03-11T22:18:46.584Z,100481.13
2023-03-11T22:21:15.609Z,100510.91
2023-03-11T22:23:42.805Z,100497.06
2023-03-11T22:26:09.668Z,100500.66
2023-03-11T22:28:36.359Z,100501.00
2023-03-11T22:31:11.266Z,100501.91
2023-03-11T22:33:37.934Z,100476.78
2023-03-11T22:36:05.061Z,100476.91
2023-03-11T22:38:32.617Z,100466.06
2023-03-11T22:41:00.376Z,100503.16
2023-03-11T22:43:27.325Z,100490.03
2023-03-11T22:45:53.944Z,100502.75
2023-03-11T22:48:20.628Z,100501.13
2023-03-11T22:50:53.071Z,100508.56
2023-03-11T22:53:21.500Z,100488.44
2023-03-11T22:55:48.112Z,100521.53
2023-03-11T22:58:15.273Z,100521.25
2023-03-11T23:00:44.106Z,100471.38
2023-03-11T23:03:11.683Z,100510.31
2023-03-11T23:05:42.061Z,100514.25
2023-03-11T23:08:10.953Z,100514.75
2023-03-11T23:10:40.889Z,100509.38
2023-03-11T23:13:08.072Z,100494.25
2023-03-11T23:15:34.640Z,100482.16
2023-03-11T23:18:01.108Z,100472.59
2023-03-11T23:20:27.873Z,100492.56
2023-03-11T23:22:54.357Z,100500.66
2023-03-11T23:25:21.001Z,100478.66
2023-03-11T23:27:47.524Z,100507.53
2023-03-11T23:30:16.637Z,100503.59
2023-03-11T23:32:43.970Z,100488.44
2023-03-11T23:35:11.307Z,100513.06
2023-03-11T23:37:37.816Z,100490.41
2023-03-11T23:40:05.148Z,100504.81
2023-03-11T23:42:35.163Z,100511.75
2023-03-11T23:45:01.736Z,100486.47
2023-03-11T23:47:28.649Z,100482.06
2023-03-11T23:49:55.175Z,100490.28
2023-03-11T23:52:21.823Z,100454.41
2023-03-11T23:54:48.358Z,100504.06
2023-03-11T23:57:14.853Z,100498.84
2023-03-11T23:59:41.354Z,100500.88
